Time;durP1;ratioP1;P1;durP2;ratioP2;P2;SDS_P1;SDS_P2;PMS_P1;PMS_P2;Temp;Humidity;BMP_temperature;BMP_pressure;BME280_temperature;BME280_humidity;BME280_pressure;Samples;Min_cycle;Max_cycle;Signal;HPM_P1;HPM_P2
2023/10/09 00:01:12;;;;;;;33.25;10.80;;;;;;;;;;5031912;28;20490;-73
2023/10/09 00:03:44;;;;;;;35.28;12.40;;;;;;;;;;5034605;28;20450;-73
2023/10/09 00:06:14;;;;;;;32.17;11.30;;;;;;;;;;5030551;28;20737;-72
2023/10/09 00:08:44;;;;;;;41.28;13.38;;;;;;;;;;5029866;28;20410;-75
2023/10/09 00:11:20;;;;;;;35.50;12.18;;;;;;;;;;5030857;28;20399;-73
2023/10/09 00:13:57;;;;;;;34.47;11.40;;;;;;;;;;5031390;28;20409;-72
2023/10/09 00:16:40;;;;;;;34.05;11.68;;;;;;;;;;5029007;28;20450;-72
2023/10/09 00:19:18;;;;;;;32.72;11.73;;;;;;;;;;5030806;28;20399;-72
2023/10/09 00:21:45;;;;;;;32.63;10.63;;;;;;;;;;5044947;28;20415;-73
2023/10/09 00:24:23;;;;;;;35.22;11.35;;;;;;;;;;5037284;28;20506;-72
2023/10/09 00:27:12;;;;;;;28.87;9.83;;;;;;;;;;5024829;28;20930;-73
2023/10/09 00:29:44;;;;;;;32.45;10.40;;;;;;;;;;5030672;28;20514;-73
2023/10/09 00:32:15;;;;;;;31.10;10.18;;;;;;;;;;5034103;28;20430;-74
2023/10/09 00:34:43;;;;;;;34.10;10.73;;;;;;;;;;5040406;28;20421;-74
2023/10/09 00:37:16;;;;;;;28.60;9.45;;;;;;;;;;5042183;28;20418;-73
2023/10/09 00:39:43;;;;;;;30.33;10.13;;;;;;;;;;5044412;28;20434;-74
2023/10/09 00:42:12;;;;;;;30.63;10.10;;;;;;;;;;5031807;28;20514;-72
2023/10/09 00:44:42;;;;;;;28.10;10.93;;;;;;;;;;5026935;28;20946;-73
2023/10/09 00:47:20;;;;;;;30.88;9.38;;;;;;;;;;5027674;28;20415;-73
2023/10/09 00:50:20;;;;;;;26.83;9.35;;;;;;;;;;5012522;28;20423;-73
2023/10/09 00:52:51;;;;;;;30.10;10.15;;;;;;;;;;5029265;28;20498;-73
2023/10/09 00:55:21;;;;;;;31.80;10.93;;;;;;;;;;5031003;28;20399;-74
2023/10/09 00:57:57;;;;;;;29.40;10.77;;;;;;;;;;5046017;28;20439;-73
2023/10/09 01:00:32;;;;;;;29.70;8.98;;;;;;;;;;5017537;28;20417;-72
2023/10/09 01:03:19;;;;;;;32.38;10.40;;;;;;;;;;5046116;28;20423;-73
2023/10/09 01:05:52;;;;;;;27.98;9.02;;;;;;;;;;5030249;28;20415;-73
2023/10/09 01:08:56;;;;;;;27.48;8.48;;;;;;;;;;5028261;28;20473;-73
2023/10/09 01:11:18;;;;;;;30.00;9.32;;;;;;;;;;5025387;28;21168;-74
2023/10/09 01:16:15;;;;;;;31.92;9.98;;;;;;;;;;5045665;28;20506;-74
2023/10/09 01:18:43;;;;;;;28.30;9.10;;;;;;;;;;5027125;28;20402;-73
2023/10/09 01:21:13;;;;;;;28.83;9.60;;;;;;;;;;5027146;28;20908;-73
2023/10/09 01:23:58;;;;;;;29.92;9.48;;;;;;;;;;5028240;28;20886;-73
2023/10/09 01:26:25;;;;;;;31.90;9.45;;;;;;;;;;5028657;28;20399;-72
2023/10/09 01:28:57;;;;;;;29.77;9.73;;;;;;;;;;5035733;28;20473;-71
2023/10/09 01:31:26;;;;;;;29.48;9.57;;;;;;;;;;5036273;28;20789;-73
2023/10/09 01:33:53;;;;;;;29.65;9.55;;;;;;;;;;5031045;28;20490;-72
2023/10/09 01:36:31;;;;;;;34.17;9.50;;;;;;;;;;5031174;28;20819;-73
2023/10/09 01:39:02;;;;;;;32.08;10.63;;;;;;;;;;5029998;28;20409;-71
2023/10/09 01:41:34;;;;;;;30.70;10.40;;;;;;;;;;5043297;28;20417;-73
2023/10/09 01:44:10;;;;;;;29.05;10.10;;;;;;;;;;5027444;28;20914;-74
2023/10/09 01:46:36;;;;;;;30.65;11.23;;;;;;;;;;5027590;28;20418;-73
2023/10/09 01:49:08;;;;;;;30.90;10.00;;;;;;;;;;5027915;28;20495;-74
2023/10/09 01:51:36;;;;;;;30.50;10.20;;;;;;;;;;5029805;28;20403;-74
2023/10/09 01:54:04;;;;;;;30.88;11.35;;;;;;;;;;5038002;28;20415;-75
2023/10/09 01:56:36;;;;;;;30.20;10.90;;;;;;;;;;5032611;28;20418;-75
2023/10/09 01:59:05;;;;;;;30.42;10.80;;;;;;;;;;5049875;28;20850;-75
2023/10/09 02:01:33;;;;;;;28.42;10.00;;;;;;;;;;5032726;28;20436;-76
2023/10/09 02:04:06;;;;;;;27.65;8.90;;;;;;;;;;5027472;28;20430;-75
2023/10/09 02:06:33;;;;;;;29.30;9.35;;;;;;;;;;5032817;28;20467;-75
2023/10/09 02:08:59;;;;;;;28.98;9.45;;;;;;;;;;5048975;28;20514;-76
2023/10/09 02:11:36;;;;;;;30.33;9.20;;;;;;;;;;5033586;28;20431;-75
2023/10/09 02:14:15;;;;;;;30.40;10.65;;;;;;;;;;5033745;28;20399;-74
2023/10/09 02:16:42;;;;;;;26.15;8.95;;;;;;;;;;5032397;28;20461;-74
2023/10/09 02:19:28;;;;;;;31.33;9.05;;;;;;;;;;5033459;28;20497;-73
2023/10/09 02:21:56;;;;;;;25.60;8.10;;;;;;;;;;5029361;28;20844;-74
2023/10/09 02:24:42;;;;;;;28.92;10.45;;;;;;;;;;5018725;28;20423;-75
2023/10/09 02:27:11;;;;;;;31.85;9.80;;;;;;;;;;5032429;28;20473;-74
2023/10/09 02:29:38;;;;;;;29.77;9.30;;;;;;;;;;5014061;28;20480;-75
2023/10/09 02:32:14;;;;;;;29.33;9.38;;;;;;;;;;5034247;28;20506;-75
2023/10/09 02:34:41;;;;;;;25.60;8.90;;;;;;;;;;5034532;28;20418;-75
2023/10/09 02:37:12;;;;;;;28.35;8.65;;;;;;;;;;5031425;28;20874;-74
2023/10/09 02:39:48;;;;;;;27.33;8.43;;;;;;;;;;5032969;28;20864;-74
2023/10/09 02:42:28;;;;;;;25.05;7.65;;;;;;;;;;5046217;28;20457;-73
2023/10/09 02:44:58;;;;;;;27.00;8.60;;;;;;;;;;5029276;28;20451;-75
2023/10/09 02:47:38;;;;;;;25.80;8.00;;;;;;;;;;5032387;28;20403;-76
2023/10/09 02:50:19;;;;;;;26.42;7.85;;;;;;;;;;5031891;28;20519;-75
2023/10/09 02:52:47;;;;;;;26.10;7.70;;;;;;;;;;5028243;28;20495;-75
2023/10/09 02:55:23;;;;;;;25.02;7.45;;;;;;;;;;5033426;28;20426;-76
2023/10/09 02:58:10;;;;;;;24.15;7.28;;;;;;;;;;5030364;28;20454;-76
2023/10/09 03:00:37;;;;;;;26.05;7.60;;;;;;;;;;5009422;28;20765;-75
2023/10/09 03:03:07;;;;;;;24.27;6.75;;;;;;;;;;5012667;28;20424;-74
2023/10/09 03:05:34;;;;;;;26.25;7.63;;;;;;;;;;5040459;28;20414;-74
2023/10/09 03:08:02;;;;;;;29.08;8.60;;;;;;;;;;5021556;28;20465;-75
2023/10/09 03:10:28;;;;;;;25.77;7.45;;;;;;;;;;5032744;28;20422;-76
2023/10/09 03:13:01;;;;;;;24.85;7.57;;;;;;;;;;5030754;28;20425;-77
2023/10/09 03:15:35;;;;;;;25.20;7.82;;;;;;;;;;5032257;28;20411;-74
2023/10/09 03:18:04;;;;;;;26.33;7.90;;;;;;;;;;5023761;28;20884;-75
2023/10/09 03:20:31;;;;;;;23.90;7.30;;;;;;;;;;5032469;28;20783;-74
2023/10/09 03:23:01;;;;;;;24.43;6.83;;;;;;;;;;5041308;28;20896;-75
2023/10/09 03:25:28;;;;;;;25.30;7.72;;;;;;;;;;5031420;28;20919;-75
2023/10/09 03:27:58;;;;;;;26.85;7.45;;;;;;;;;;5036398;28;20998;-75
2023/10/09 03:30:26;;;;;;;25.13;7.50;;;;;;;;;;5030949;28;20912;-75
2023/10/09 03:32:53;;;;;;;30.00;8.27;;;;;;;;;;5026248;28;20930;-75
2023/10/09 03:35:25;;;;;;;27.48;9.18;;;;;;;;;;5033664;28;20926;-75
2023/10/09 03:37:53;;;;;;;25.45;8.07;;;;;;;;;;5031654;28;20403;-76
2023/10/09 03:40:19;;;;;;;27.08;7.40;;;;;;;;;;5031231;28;20510;-75
2023/10/09 03:42:47;;;;;;;26.08;7.10;;;;;;;;;;5030852;28;20419;-75
2023/10/09 03:45:24;;;;;;;27.67;8.37;;;;;;;;;;5030708;28;20489;-75
2023/10/09 03:47:58;;;;;;;25.88;7.38;;;;;;;;;;5037552;28;20957;-76
2023/10/09 03:50:35;;;;;;;26.10;8.05;;;;;;;;;;5030677;28;20516;-75
2023/10/09 03:53:07;;;;;;;25.75;8.10;;;;;;;;;;5010628;28;20510;-75
2023/10/09 03:55:34;;;;;;;23.83;7.07;;;;;;;;;;5032031;28;20403;-75
2023/10/09 03:58:01;;;;;;;26.27;8.80;;;;;;;;;;5032001;28;20407;-76
2023/10/09 04:00:28;;;;;;;25.27;8.23;;;;;;;;;;5032067;28;20409;-76
2023/10/09 04:02:57;;;;;;;26.67;7.40;;;;;;;;;;5038124;28;20453;-75
2023/10/09 04:05:24;;;;;;;25.80;7.65;;;;;;;;;;5036032;28;20407;-75
2023/10/09 04:07:53;;;;;;;23.40;7.47;;;;;;;;;;5031559;28;20447;-75
2023/10/09 04:13:10;;;;;;;24.60;7.43;;;;;;;;;;5031725;28;20835;-75
2023/10/09 04:15:37;;;;;;;26.07;7.80;;;;;;;;;;5029259;28;20497;-75
2023/10/09 04:18:10;;;;;;;27.05;8.98;;;;;;;;;;5031801;28;20405;-74
2023/10/09 04:21:18;;;;;;;22.00;7.05;;;;;;;;;;5016818;28;20401;-75
2023/10/09 04:24:08;;;;;;;26.75;8.43;;;;;;;;;;5046269;28;20422;-77
2023/10/09 04:26:37;;;;;;;26.55;7.07;;;;;;;;;;5030388;28;20414;-76
2023/10/09 04:29:03;;;;;;;23.75;7.68;;;;;;;;;;5036188;28;20419;-75
2023/10/09 04:31:37;;;;;;;26.00;8.37;;;;;;;;;;5029520;28;20440;-75
2023/10/09 04:34:48;;;;;;;25.65;7.65;;;;;;;;;;5031478;28;20418;-75
2023/10/09 04:37:00;;;;;;;24.90;7.25;;;;;;;;;;5022844;28;20435;-75
2023/10/09 04:47:37;;;;;;;25.33;7.90;;;;;;;;;;4999710;28;20414;-75
2023/10/09 05:02:56;;;;;;;26.55;7.10;;;;;;;;;;5030336;28;20437;-76
2023/10/09 05:08:21;;;;;;;23.40;7.15;;;;;;;;;;5042623;28;20409;-75
2023/10/09 05:13:42;;;;;;;26.48;7.28;;;;;;;;;;5029812;28;20521;-75
2023/10/09 05:18:45;;;;;;;22.73;6.70;;;;;;;;;;5028741;28;20419;-75
2023/10/09 05:23:48;;;;;;;21.55;6.05;;;;;;;;;;5030065;28;20767;-74
2023/10/09 05:29:18;;;;;;;23.10;7.40;;;;;;;;;;5033622;28;20795;-74
2023/10/09 05:31:56;;;;;;;23.45;7.72;;;;;;;;;;5038164;28;20481;-75
2023/10/09 05:34:23;;;;;;;24.42;6.82;;;;;;;;;;5005581;28;20474;-75
2023/10/09 05:36:51;;;;;;;24.02;6.70;;;;;;;;;;5035040;28;20509;-75
2023/10/09 05:39:41;;;;;;;21.30;6.75;;;;;;;;;;5034618;28;20888;-76
2023/10/09 05:42:09;;;;;;;27.55;7.60;;;;;;;;;;5030034;28;20463;-74
2023/10/09 05:47:33;;;;;;;27.33;7.32;;;;;;;;;;5034817;28;20411;-74
2023/10/09 06:03:48;;;;;;;23.20;7.00;;;;;;;;;;5031951;28;20430;-74
2023/10/09 06:11:49;;;;;;;23.02;6.80;;;;;;;;;;5031873;28;20427;-75
2023/10/09 06:24:22;;;;;;;22.60;6.35;;;;;;;;;;5033992;28;20418;-76
2023/10/09 06:34:51;;;;;;;21.98;5.93;;;;;;;;;;5031549;28;20422;-76
2023/10/09 06:42:43;;;;;;;23.20;6.95;;;;;;;;;;5046927;28;20559;-75
2023/10/09 06:56:04;;;;;;;19.53;5.53;;;;;;;;;;5033306;28;20410;-76
2023/10/09 06:58:41;;;;;;;21.70;5.90;;;;;;;;;;5028101;28;20415;-77
2023/10/09 07:03:53;;;;;;;22.30;6.22;;;;;;;;;;5032829;28;20399;-77
2023/10/09 07:06:24;;;;;;;22.10;6.55;;;;;;;;;;5033467;28;20506;-75
2023/10/09 07:09:15;;;;;;;23.92;5.65;;;;;;;;;;5031615;28;20454;-75
2023/10/09 07:15:01;;;;;;;21.10;5.90;;;;;;;;;;5032145;28;20411;-75
2023/10/09 07:17:00;;;;;;;19.25;5.38;;;;;;;;;;5032368;28;20768;-75
2023/10/09 07:22:16;;;;;;;20.80;5.50;;;;;;;;;;5033105;28;20400;-75
2023/10/09 07:24:43;;;;;;;23.40;5.57;;;;;;;;;;5036684;28;20835;-76
2023/10/09 07:27:15;;;;;;;23.40;6.03;;;;;;;;;;5047227;28;20896;-75
2023/10/09 07:29:48;;;;;;;22.93;5.83;;;;;;;;;;5032030;28;20473;-75
2023/10/09 07:32:20;;;;;;;21.63;5.43;;;;;;;;;;5032262;28;20426;-74
2023/10/09 07:34:53;;;;;;;23.40;6.20;;;;;;;;;;5043171;28;20782;-76
2023/10/09 07:37:22;;;;;;;20.48;5.50;;;;;;;;;;5030465;28;20409;-74
2023/10/09 07:39:56;;;;;;;20.70;6.03;;;;;;;;;;5032563;28;20974;-75
2023/10/09 07:50:38;;;;;;;22.55;5.72;;;;;;;;;;5031285;28;20438;-74
2023/10/09 07:53:25;;;;;;;23.40;5.60;;;;;;;;;;5019173;28;20458;-75
2023/10/09 07:55:56;;;;;;;23.15;6.22;;;;;;;;;;5031149;28;20486;-76
2023/10/09 07:58:25;;;;;;;19.42;5.53;;;;;;;;;;5028938;28;20415;-76
2023/10/09 08:03:25;;;;;;;21.27;5.70;;;;;;;;;;5029879;28;20758;-75
2023/10/09 08:05:53;;;;;;;22.00;5.25;;;;;;;;;;5033597;28;20971;-74
2023/10/09 08:13:57;;;;;;;24.00;5.55;;;;;;;;;;5031466;28;20768;-74
2023/10/09 08:16:24;;;;;;;19.98;5.00;;;;;;;;;;5029985;28;20472;-74
2023/10/09 08:18:57;;;;;;;21.95;4.75;;;;;;;;;;5034351;28;20411;-75
2023/10/09 08:21:42;;;;;;;21.15;5.43;;;;;;;;;;5031687;28;20407;-75
2023/10/09 08:24:35;;;;;;;23.33;5.00;;;;;;;;;;5037110;28;20407;-76
2023/10/09 08:27:46;;;;;;;20.38;5.07;;;;;;;;;;5031757;28;20460;-75
2023/10/09 08:29:46;;;;;;;20.73;5.00;;;;;;;;;;5030377;28;20407;-75
2023/10/09 08:32:18;;;;;;;19.70;4.30;;;;;;;;;;5030071;28;20522;-75
2023/10/09 08:35:18;;;;;;;21.55;4.78;;;;;;;;;;5032353;28;20403;-74
2023/10/09 08:37:48;;;;;;;19.30;4.20;;;;;;;;;;5031694;28;20616;-75
2023/10/09 08:40:20;;;;;;;23.05;4.38;;;;;;;;;;5029708;28;20419;-76
2023/10/09 08:42:52;;;;;;;21.33;5.10;;;;;;;;;;5035093;28;20407;-74
2023/10/09 08:45:24;;;;;;;20.15;4.60;;;;;;;;;;5039806;28;20451;-76
2023/10/09 08:47:54;;;;;;;20.50;4.63;;;;;;;;;;5029936;28;20438;-76
2023/10/09 08:50:21;;;;;;;21.48;4.95;;;;;;;;;;5033839;28;20403;-75
2023/10/09 08:52:49;;;;;;;20.02;4.70;;;;;;;;;;5029483;28;20783;-74
2023/10/09 08:55:17;;;;;;;21.83;5.10;;;;;;;;;;5030154;28;20473;-76
2023/10/09 08:57:44;;;;;;;21.33;4.80;;;;;;;;;;5045858;28;20420;-75
2023/10/09 09:00:21;;;;;;;23.45;5.55;;;;;;;;;;5022217;28;20427;-74
2023/10/09 09:02:49;;;;;;;20.00;4.43;;;;;;;;;;5033475;28;20414;-75
2023/10/09 09:05:17;;;;;;;20.15;4.50;;;;;;;;;;5042112;28;20391;-75
2023/10/09 09:07:44;;;;;;;18.45;4.63;;;;;;;;;;5042368;28;20931;-74
2023/10/09 09:10:31;;;;;;;20.75;4.82;;;;;;;;;;5042976;28;20438;-75
2023/10/09 09:13:03;;;;;;;19.88;4.47;;;;;;;;;;5021469;28;20772;-74
2023/10/09 09:15:30;;;;;;;24.02;4.50;;;;;;;;;;5039921;28;20407;-74
2023/10/09 09:18:06;;;;;;;21.52;4.68;;;;;;;;;;5041355;28;20880;-75
2023/10/09 09:20:45;;;;;;;20.50;4.15;;;;;;;;;;5042966;28;20445;-75
2023/10/09 09:23:12;;;;;;;20.40;4.70;;;;;;;;;;5056533;28;20407;-75
2023/10/09 09:25:43;;;;;;;19.92;4.80;;;;;;;;;;5053104;28;20410;-75
2023/10/09 09:28:12;;;;;;;18.00;4.10;;;;;;;;;;5036758;28;20403;-75
2023/10/09 09:30:40;;;;;;;18.77;4.32;;;;;;;;;;5035484;28;20410;-76
2023/10/09 09:33:26;;;;;;;19.80;4.25;;;;;;;;;;5039171;28;20462;-75
2023/10/09 09:35:58;;;;;;;20.50;4.15;;;;;;;;;;5042031;28;20566;-77
2023/10/09 09:38:27;;;;;;;21.23;4.63;;;;;;;;;;5054810;28;20469;-75
2023/10/09 09:40:55;;;;;;;20.75;4.55;;;;;;;;;;5034629;28;20511;-75
2023/10/09 09:43:23;;;;;;;20.35;4.80;;;;;;;;;;5061229;28;20425;-72
2023/10/09 09:45:50;;;;;;;23.42;5.30;;;;;;;;;;5038675;28;20418;-75
2023/10/09 09:48:19;;;;;;;19.63;4.60;;;;;;;;;;5041093;28;20454;-75
2023/10/09 09:50:47;;;;;;;21.95;4.00;;;;;;;;;;5045771;28;20415;-75
2023/10/09 09:53:17;;;;;;;25.40;4.80;;;;;;;;;;5038143;28;20888;-75
2023/10/09 09:55:57;;;;;;;21.52;4.40;;;;;;;;;;5043481;28;20410;-76
2023/10/09 09:58:27;;;;;;;20.63;3.85;;;;;;;;;;5044559;28;20405;-76
2023/10/09 10:00:59;;;;;;;18.70;4.50;;;;;;;;;;5047451;28;20472;-76
2023/10/09 10:03:32;;;;;;;25.08;4.40;;;;;;;;;;5045658;28;20414;-75
2023/10/09 10:06:04;;;;;;;19.00;4.00;;;;;;;;;;5042850;28;20410;-76
2023/10/09 10:08:32;;;;;;;18.80;4.15;;;;;;;;;;5041009;28;20573;-77
2023/10/09 10:11:14;;;;;;;21.53;3.90;;;;;;;;;;5043266;28;20415;-75
2023/10/09 10:14:01;;;;;;;19.60;3.47;;;;;;;;;;5045128;28;20423;-76
2023/10/09 10:16:34;;;;;;;17.90;4.00;;;;;;;;;;5027071;28;20477;-74
2023/10/09 10:21:53;;;;;;;22.38;4.38;;;;;;;;;;5033403;28;20462;-73
2023/10/09 10:24:52;;;;;;;18.23;3.20;;;;;;;;;;5028454;28;20735;-73
2023/10/09 10:27:32;;;;;;;20.20;3.80;;;;;;;;;;5033135;28;20465;-71
2023/10/09 10:30:23;;;;;;;19.58;4.20;;;;;;;;;;5036135;28;20413;-73
2023/10/09 10:32:53;;;;;;;18.88;3.40;;;;;;;;;;5032109;28;20892;-75
2023/10/09 10:35:56;;;;;;;17.63;3.17;;;;;;;;;;5048389;28;20409;-75
2023/10/09 10:38:24;;;;;;;17.55;3.90;;;;;;;;;;5026219;28;20438;-72
2023/10/09 10:40:57;;;;;;;17.88;3.70;;;;;;;;;;5032563;28;20411;-73
2023/10/09 10:46:15;;;;;;;17.55;3.10;;;;;;;;;;5048104;28;20440;-75
2023/10/09 10:48:46;;;;;;;17.83;3.10;;;;;;;;;;5031495;28;20419;-74
2023/10/09 10:51:14;;;;;;;18.67;3.60;;;;;;;;;;5029987;28;20878;-73
2023/10/09 10:53:49;;;;;;;20.05;3.00;;;;;;;;;;5030523;28;20424;-74
2023/10/09 10:59:11;;;;;;;18.60;3.15;;;;;;;;;;5048037;28;20426;-76
2023/10/09 11:04:38;;;;;;;18.40;3.25;;;;;;;;;;5028826;28;20929;-75
2023/10/09 11:07:09;;;;;;;19.20;2.90;;;;;;;;;;5042004;28;20425;-74
2023/10/09 11:09:57;;;;;;;20.13;3.07;;;;;;;;;;5035032;28;21107;-75
2023/10/09 11:12:25;;;;;;;16.42;3.00;;;;;;;;;;5021505;28;20420;-73
2023/10/09 11:15:08;;;;;;;20.80;3.20;;;;;;;;;;5022887;28;20403;-72
2023/10/09 11:17:35;;;;;;;17.52;3.40;;;;;;;;;;5032269;28;20409;-72
2023/10/09 11:20:22;;;;;;;18.70;3.13;;;;;;;;;;5029016;28;20889;-72
2023/10/09 11:25:49;;;;;;;19.80;3.30;;;;;;;;;;5045166;28;20513;-76
2023/10/09 11:28:29;;;;;;;17.20;2.90;;;;;;;;;;5059624;28;20557;-74
2023/10/09 11:31:05;;;;;;;17.52;2.97;;;;;;;;;;5012995;28;20762;-74
2023/10/09 11:33:42;;;;;;;20.50;3.50;;;;;;;;;;5030763;28;21162;-75
2023/10/09 11:36:09;;;;;;;18.38;3.50;;;;;;;;;;5028281;28;20416;-75
2023/10/09 11:38:37;;;;;;;17.45;3.30;;;;;;;;;;5029270;28;20890;-75
2023/10/09 11:41:19;;;;;;;20.80;3.60;;;;;;;;;;5038319;28;20464;-73
2023/10/09 11:43:52;;;;;;;17.13;3.20;;;;;;;;;;5029885;28;20419;-75
2023/10/09 11:46:48;;;;;;;17.48;3.38;;;;;;;;;;5030450;28;20411;-75
2023/10/09 11:49:26;;;;;;;18.08;3.80;;;;;;;;;;5030458;28;20784;-75
2023/10/09 11:54:44;;;;;;;18.63;3.70;;;;;;;;;;5045524;28;20425;-75
2023/10/09 11:57:10;;;;;;;18.65;3.80;;;;;;;;;;5038697;28;20435;-76
2023/10/09 11:59:41;;;;;;;20.77;3.30;;;;;;;;;;5030939;28;20501;-73
2023/10/09 12:02:12;;;;;;;19.08;3.67;;;;;;;;;;5040151;28;20423;-76
2023/10/09 12:04:42;;;;;;;17.73;3.53;;;;;;;;;;5029346;28;20429;-75
2023/10/09 12:07:12;;;;;;;19.80;3.90;;;;;;;;;;5030595;28;20896;-75
2023/10/09 12:09:39;;;;;;;19.15;3.50;;;;;;;;;;5026795;28;20483;-75
2023/10/09 12:12:09;;;;;;;19.10;3.22;;;;;;;;;;5046153;28;20480;-75
2023/10/09 12:14:37;;;;;;;18.73;4.00;;;;;;;;;;5030722;28;20403;-75
2023/10/09 12:17:07;;;;;;;19.35;3.67;;;;;;;;;;5031292;28;20411;-75
2023/10/09 12:19:34;;;;;;;22.05;3.80;;;;;;;;;;5045122;28;20419;-75
2023/10/09 12:22:03;;;;;;;19.90;4.20;;;;;;;;;;5029782;28;20423;-74
2023/10/09 12:24:30;;;;;;;19.27;3.77;;;;;;;;;;5030858;28;20439;-75
2023/10/09 12:26:57;;;;;;;21.77;4.20;;;;;;;;;;5030610;28;20476;-75
2023/10/09 12:29:29;;;;;;;20.25;3.85;;;;;;;;;;5031462;28;20438;-75
2023/10/09 12:31:59;;;;;;;17.45;3.83;;;;;;;;;;5028711;28;20411;-75
2023/10/09 12:34:26;;;;;;;22.60;4.80;;;;;;;;;;5030182;28;20561;-75
2023/10/09 12:36:53;;;;;;;19.38;3.75;;;;;;;;;;5028353;28;20415;-75
2023/10/09 12:39:21;;;;;;;18.10;3.80;;;;;;;;;;5012944;28;20433;-73
2023/10/09 12:41:48;;;;;;;22.88;4.40;;;;;;;;;;5032009;28;20726;-75
2023/10/09 12:44:14;;;;;;;21.15;4.20;;;;;;;;;;5029460;28;20413;-74
2023/10/09 12:46:51;;;;;;;21.08;3.80;;;;;;;;;;5028987;28;20410;-74
2023/10/09 12:49:19;;;;;;;19.33;3.63;;;;;;;;;;5031294;28;20438;-75
2023/10/09 12:51:45;;;;;;;19.63;3.75;;;;;;;;;;5035007;28;20419;-75
2023/10/09 12:54:14;;;;;;;22.98;3.85;;;;;;;;;;5030865;28;20512;-75
2023/10/09 12:56:41;;;;;;;20.60;4.00;;;;;;;;;;5027491;28;20908;-75
2023/10/09 12:59:14;;;;;;;18.98;4.00;;;;;;;;;;5010533;28;20576;-75
2023/10/09 13:01:43;;;;;;;23.63;4.28;;;;;;;;;;5030141;28;20453;-75
2023/10/09 13:04:11;;;;;;;22.92;3.80;;;;;;;;;;5046410;28;20408;-73
2023/10/09 13:06:43;;;;;;;18.42;3.72;;;;;;;;;;5037745;28;20411;-75
2023/10/09 13:09:10;;;;;;;20.52;4.40;;;;;;;;;;5037587;28;20413;-73
2023/10/09 13:11:40;;;;;;;19.43;3.80;;;;;;;;;;5036531;28;20446;-73
2023/10/09 13:14:21;;;;;;;20.08;3.70;;;;;;;;;;5037598;28;20414;-76
2023/10/09 13:16:50;;;;;;;19.97;3.77;;;;;;;;;;5029974;28;20953;-76
2023/10/09 13:19:17;;;;;;;24.30;4.25;;;;;;;;;;5037942;28;20422;-75
2023/10/09 13:21:44;;;;;;;24.13;4.00;;;;;;;;;;5037689;28;20446;-76
2023/10/09 13:24:15;;;;;;;20.63;3.53;;;;;;;;;;5029868;28;20907;-71
2023/10/09 13:26:46;;;;;;;22.67;3.85;;;;;;;;;;5032581;28;20418;-75
2023/10/09 13:29:13;;;;;;;22.58;5.10;;;;;;;;;;5015099;28;20425;-74
2023/10/09 13:31:47;;;;;;;21.13;3.65;;;;;;;;;;5030021;28;20402;-74
2023/10/09 13:34:15;;;;;;;18.53;3.83;;;;;;;;;;5030080;28;20484;-74
2023/10/09 13:36:50;;;;;;;19.00;4.07;;;;;;;;;;5033633;28;20510;-74
2023/10/09 13:39:26;;;;;;;21.05;4.03;;;;;;;;;;5035971;28;20457;-73
2023/10/09 13:41:57;;;;;;;20.48;4.00;;;;;;;;;;5037481;28;20415;-75
2023/10/09 13:44:26;;;;;;;20.38;4.00;;;;;;;;;;5040315;28;20415;-76
2023/10/09 13:46:53;;;;;;;19.48;4.20;;;;;;;;;;5037209;28;20418;-75
2023/10/09 13:49:22;;;;;;;21.75;4.25;;;;;;;;;;5042311;28;20533;-76
2023/10/09 13:51:50;;;;;;;22.70;4.57;;;;;;;;;;5037942;28;20394;-75
2023/10/09 13:54:21;;;;;;;23.90;4.20;;;;;;;;;;5015426;28;20419;-75
2023/10/09 13:56:52;;;;;;;17.73;3.50;;;;;;;;;;5031094;28;20430;-75
2023/10/09 13:59:20;;;;;;;22.33;4.80;;;;;;;;;;5033630;28;20407;-73
2023/10/09 14:01:48;;;;;;;18.00;3.60;;;;;;;;;;5047343;28;20426;-74
2023/10/09 14:04:18;;;;;;;19.10;3.78;;;;;;;;;;5037131;28;20939;-74
2023/10/09 14:06:47;;;;;;;18.23;3.90;;;;;;;;;;5037459;28;20464;-75
2023/10/09 14:09:27;;;;;;;19.67;3.50;;;;;;;;;;5042582;28;20448;-75
2023/10/09 14:12:05;;;;;;;18.38;3.83;;;;;;;;;;5039436;28;20415;-76
2023/10/09 14:14:33;;;;;;;18.45;3.70;;;;;;;;;;5034385;28;20448;-72
2023/10/09 14:17:00;;;;;;;18.15;3.50;;;;;;;;;;5041696;28;20442;-75
2023/10/09 14:19:26;;;;;;;20.70;4.07;;;;;;;;;;5044786;28;20470;-74
2023/10/09 14:22:00;;;;;;;19.43;3.63;;;;;;;;;;5044603;28;20399;-75
2023/10/09 14:24:32;;;;;;;20.70;4.13;;;;;;;;;;5041042;28;20404;-75
2023/10/09 14:26:59;;;;;;;18.33;3.67;;;;;;;;;;5042859;28;20410;-76
2023/10/09 14:29:26;;;;;;;19.77;3.80;;;;;;;;;;5035964;28;20410;-75
2023/10/09 14:32:00;;;;;;;18.40;3.70;;;;;;;;;;5036900;28;20411;-76
2023/10/09 14:34:32;;;;;;;19.17;3.95;;;;;;;;;;5028964;28;20425;-75
2023/10/09 14:37:00;;;;;;;18.00;3.60;;;;;;;;;;5034934;28;20462;-75
2023/10/09 14:39:27;;;;;;;17.88;3.80;;;;;;;;;;5035911;28;20474;-76
2023/10/09 14:41:54;;;;;;;18.20;3.67;;;;;;;;;;5037066;28;20407;-76
2023/10/09 14:44:23;;;;;;;19.25;4.13;;;;;;;;;;5035507;28;20441;-74
2023/10/09 14:46:50;;;;;;;18.77;4.35;;;;;;;;;;5037858;28;20427;-74
2023/10/09 14:49:21;;;;;;;20.08;4.53;;;;;;;;;;5038229;28;20415;-75
2023/10/09 14:51:48;;;;;;;18.27;3.63;;;;;;;;;;5029800;28;20774;-74
2023/10/09 14:54:17;;;;;;;18.85;4.30;;;;;;;;;;5036338;28;20433;-74
2023/10/09 14:56:45;;;;;;;20.33;4.50;;;;;;;;;;5031837;28;20828;-74
2023/10/09 14:59:12;;;;;;;17.55;3.67;;;;;;;;;;5031952;28;20764;-74
2023/10/09 15:01:38;;;;;;;19.80;4.30;;;;;;;;;;5032357;28;20498;-76
2023/10/09 15:04:07;;;;;;;21.23;4.60;;;;;;;;;;5032997;28;20911;-74
2023/10/09 15:06:35;;;;;;;19.63;4.00;;;;;;;;;;5032366;28;20422;-73
2023/10/09 15:09:08;;;;;;;18.75;4.00;;;;;;;;;;5031612;28;20491;-74
2023/10/09 15:11:40;;;;;;;23.45;4.47;;;;;;;;;;5031507;28;20409;-75
2023/10/09 15:14:06;;;;;;;18.70;3.80;;;;;;;;;;5044612;28;20429;-74
2023/10/09 15:16:33;;;;;;;19.48;4.50;;;;;;;;;;5032451;28;20438;-73
2023/10/09 15:19:02;;;;;;;18.95;3.70;;;;;;;;;;5027129;28;20417;-74
2023/10/09 15:21:32;;;;;;;18.67;4.32;;;;;;;;;;5037572;28;21338;-74
2023/10/09 15:23:59;;;;;;;20.38;3.90;;;;;;;;;;5032246;28;20880;-75
2023/10/09 15:26:32;;;;;;;19.08;4.05;;;;;;;;;;5031590;28;20406;-75
2023/10/09 15:29:03;;;;;;;21.08;4.40;;;;;;;;;;5029109;28;20415;-74
2023/10/09 15:31:32;;;;;;;20.90;4.80;;;;;;;;;;5035659;28;20419;-74
2023/10/09 15:33:59;;;;;;;21.90;4.70;;;;;;;;;;5030970;28;20419;-75
2023/10/09 15:36:28;;;;;;;21.52;4.90;;;;;;;;;;5030530;28;20949;-74
2023/10/09 15:38:59;;;;;;;18.23;4.10;;;;;;;;;;5014908;28;20410;-75
2023/10/09 15:41:29;;;;;;;19.30;4.32;;;;;;;;;;5020879;28;20498;-75
2023/10/09 15:43:57;;;;;;;20.15;4.05;;;;;;;;;;5030573;28;21077;-75
2023/10/09 15:46:25;;;;;;;18.02;3.75;;;;;;;;;;5019627;28;20648;-74
2023/10/09 15:48:53;;;;;;;19.35;4.53;;;;;;;;;;5042277;28;20510;-75
2023/10/09 15:51:20;;;;;;;21.10;4.20;;;;;;;;;;5030377;28;20425;-75
2023/10/09 15:53:46;;;;;;;20.63;4.78;;;;;;;;;;5035724;28;21030;-75
2023/10/09 15:56:13;;;;;;;20.38;4.30;;;;;;;;;;5030270;28;20913;-73
2023/10/09 15:58:44;;;;;;;21.42;4.50;;;;;;;;;;5031984;28;20756;-75
2023/10/09 16:01:12;;;;;;;20.80;4.32;;;;;;;;;;5038512;28;20411;-75
2023/10/09 16:03:41;;;;;;;18.90;4.57;;;;;;;;;;5030478;28;21215;-75
2023/10/09 16:06:11;;;;;;;19.42;4.35;;;;;;;;;;5029332;28;20436;-75
2023/10/09 16:08:38;;;;;;;21.50;4.38;;;;;;;;;;5046759;28;20507;-75
2023/10/09 16:11:05;;;;;;;20.40;4.93;;;;;;;;;;5029880;28;20852;-75
2023/10/09 16:13:32;;;;;;;20.92;5.00;;;;;;;;;;5031274;28;20748;-75
2023/10/09 16:15:59;;;;;;;20.42;4.93;;;;;;;;;;5031078;28;20481;-75
2023/10/09 16:18:27;;;;;;;18.48;3.90;;;;;;;;;;5039765;28;20409;-74
2023/10/09 16:20:55;;;;;;;23.63;4.80;;;;;;;;;;5030572;28;20419;-75
2023/10/09 16:23:22;;;;;;;21.60;4.78;;;;;;;;;;5030369;28;20883;-75
2023/10/09 16:25:49;;;;;;;20.52;4.70;;;;;;;;;;5031676;28;20502;-74
2023/10/09 16:28:15;;;;;;;21.10;5.10;;;;;;;;;;5031198;28;21087;-75
2023/10/09 16:30:43;;;;;;;20.80;5.00;;;;;;;;;;5031706;28;20778;-74
2023/10/09 16:33:09;;;;;;;19.73;4.53;;;;;;;;;;5030653;28;20410;-74
2023/10/09 16:35:41;;;;;;;20.20;4.80;;;;;;;;;;5031425;28;20510;-74
2023/10/09 16:38:12;;;;;;;21.08;4.93;;;;;;;;;;5031690;28;20415;-74
2023/10/09 16:40:39;;;;;;;23.42;4.82;;;;;;;;;;5029716;28;20421;-73
2023/10/09 16:43:13;;;;;;;22.40;4.45;;;;;;;;;;5030132;28;20421;-75
2023/10/09 16:45:43;;;;;;;21.10;5.23;;;;;;;;;;5028949;28;20411;-73
2023/10/09 16:48:10;;;;;;;20.50;4.70;;;;;;;;;;5031380;28;20431;-75
2023/10/09 16:50:37;;;;;;;19.35;4.90;;;;;;;;;;5028465;28;20510;-75
2023/10/09 16:53:10;;;;;;;19.98;4.82;;;;;;;;;;5033236;28;20772;-75
2023/10/09 16:55:41;;;;;;;21.10;5.10;;;;;;;;;;5027820;28;20506;-74
2023/10/09 16:58:08;;;;;;;21.45;4.60;;;;;;;;;;5014703;28;20420;-75
2023/10/09 17:00:35;;;;;;;22.23;6.00;;;;;;;;;;5031341;28;20449;-73
2023/10/09 17:03:08;;;;;;;23.60;4.50;;;;;;;;;;5029078;28;20990;-75
2023/10/09 17:05:42;;;;;;;18.65;4.55;;;;;;;;;;5027148;28;21325;-74
2023/10/09 17:08:10;;;;;;;19.83;4.72;;;;;;;;;;5030625;28;20411;-74
2023/10/09 17:10:45;;;;;;;22.92;7.03;;;;;;;;;;5029459;28;20417;-74
2023/10/09 17:13:20;;;;;;;20.80;6.00;;;;;;;;;;5028579;28;20417;-74